Hovedside
METAR-TAF:

METAR-TAF

Lufthavner :

Kunming Changshui internasjonale lufthavn

Kunming, Kina

breddegrad: 25-01N, lengdegrad: 102-41E, høyde over havet: 1892 m

Gjeldene værobservasjon

Denne rapporten ble laget for 14 minutter siden, klokken 07:00 UTC
Vind 21 kt fra Vest-sørvest med vindkast opp mot 31 kt, skiftende mellom Sørvest og Vest
Temperatur 27°C
Luftfuktighet 18%
Trykk 1018 hPa
Sikt 10 km eller mer
Spredte skyer i en høyde av 2600 ft

METAR: ZPPP 230700Z 25011G16MPS 220V280 9999 SCT026 27/01 Q1018 NOSIG

Tid: 15:14 (07:14 UTC)

Varsel

Denne rapporten ble laget for 6 timer og 5 minutter siden, klokken 01:09 UTC
Varsel gyldig fra 23. klokken 06 UTC til 24. klokken 06 UTC
Vind 23 kt fra Sørvest med vindkast opp mot 33 kt
Sikt 10 km eller mer
ingen skyer under 1500 m og ingen bygeskyer
Blir
fra 23. klokken 11 UTC til 23. klokken 12 UTC
Vind 14 kt fra Sørvest

TAF: ZPPP 230109Z 2306/2406 23012G17MPS CAVOK TX28/2308Z TN13/2323Z BECMG 2311/2312 23007MPS

Værobservasjoner og værvarsel for over 4000 flyplasser (METAR- og TAF-rapporter).

Tilgjengelige stasjoner er representert av de røde og gule prikkene på kartet.

Hold musepekeren over prikken for å se navnet på stasjonen.

Klikk så for å se værobservasjoner og -varsler.

For å forandre kartet kan du klikke på den grønne knappen med svart kryss for å zoome inn, på den grønne knappen med strek for å zoome ut, eller på de grønne pilene for å se tilstøtende kart.


METAR-TAF: